sensor_id;sensor_type;location;lat;lon;timestamp;P1;durP1;ratioP1;P2;durP2;ratioP2
81894;SDS011;76432;45.642;13.758;2024-02-14T00:01:56;3.40;;;2.67;;
81894;SDS011;76432;45.642;13.758;2024-02-14T00:04:41;3.65;;;2.65;;
81894;SDS011;76432;45.642;13.758;2024-02-14T00:07:26;3.78;;;3.05;;
81894;SDS011;76432;45.642;13.758;2024-02-14T00:10:10;3.90;;;3.30;;
81894;SDS011;76432;45.642;13.758;2024-02-14T00:12:55;3.45;;;2.72;;
81894;SDS011;76432;45.642;13.758;2024-02-14T00:15:40;3.85;;;2.80;;
81894;SDS011;76432;45.642;13.758;2024-02-14T00:18:24;3.55;;;3.25;;
81894;SDS011;76432;45.642;13.758;2024-02-14T00:21:09;5.03;;;3.63;;
81894;SDS011;76432;45.642;13.758;2024-02-14T00:23:54;3.20;;;2.75;;
81894;SDS011;76432;45.642;13.758;2024-02-14T00:26:38;3.47;;;3.17;;
81894;SDS011;76432;45.642;13.758;2024-02-14T00:29:23;3.88;;;3.17;;
81894;SDS011;76432;45.642;13.758;2024-02-14T00:32:07;3.55;;;2.50;;
81894;SDS011;76432;45.642;13.758;2024-02-14T00:34:52;3.08;;;2.78;;
81894;SDS011;76432;45.642;13.758;2024-02-14T00:37:37;3.38;;;2.45;;
81894;SDS011;76432;45.642;13.758;2024-02-14T00:40:21;4.03;;;3.05;;
81894;SDS011;76432;45.642;13.758;2024-02-14T00:43:06;3.55;;;2.40;;
81894;SDS011;76432;45.642;13.758;2024-02-14T00:45:51;3.28;;;2.80;;
81894;SDS011;76432;45.642;13.758;2024-02-14T00:48:35;5.20;;;2.95;;
81894;SDS011;76432;45.642;13.758;2024-02-14T00:51:21;3.90;;;2.45;;
81894;SDS011;76432;45.642;13.758;2024-02-14T00:54:08;4.65;;;2.58;;
81894;SDS011;76432;45.642;13.758;2024-02-14T00:56:53;5.68;;;2.90;;
81894;SDS011;76432;45.642;13.758;2024-02-14T00:59:38;3.15;;;2.17;;
81894;SDS011;76432;45.642;13.758;2024-02-14T01:02:22;3.00;;;2.53;;
81894;SDS011;76432;45.642;13.758;2024-02-14T01:05:07;3.17;;;2.83;;
81894;SDS011;76432;45.642;13.758;2024-02-14T01:07:51;4.13;;;2.35;;
81894;SDS011;76432;45.642;13.758;2024-02-14T01:10:37;2.92;;;2.03;;
81894;SDS011;76432;45.642;13.758;2024-02-14T01:13:22;3.22;;;2.30;;
81894;SDS011;76432;45.642;13.758;2024-02-14T01:16:06;2.67;;;2.13;;
81894;SDS011;76432;45.642;13.758;2024-02-14T01:18:52;3.25;;;2.03;;
81894;SDS011;76432;45.642;13.758;2024-02-14T01:21:36;3.45;;;2.15;;
81894;SDS011;76432;45.642;13.758;2024-02-14T01:24:21;2.78;;;2.10;;
81894;SDS011;76432;45.642;13.758;2024-02-14T01:27:06;2.30;;;2.10;;
81894;SDS011;76432;45.642;13.758;2024-02-14T01:29:52;2.60;;;2.00;;
81894;SDS011;76432;45.642;13.758;2024-02-14T01:32:39;2.50;;;2.15;;
81894;SDS011;76432;45.642;13.758;2024-02-14T01:35:23;2.50;;;2.30;;
81894;SDS011;76432;45.642;13.758;2024-02-14T01:38:08;2.33;;;1.80;;
81894;SDS011;76432;45.642;13.758;2024-02-14T01:40:52;3.05;;;2.20;;
81894;SDS011;76432;45.642;13.758;2024-02-14T01:43:37;2.38;;;2.05;;
81894;SDS011;76432;45.642;13.758;2024-02-14T01:46:22;3.20;;;1.80;;
81894;SDS011;76432;45.642;13.758;2024-02-14T01:49:06;2.50;;;1.98;;
81894;SDS011;76432;45.642;13.758;2024-02-14T01:51:51;4.53;;;2.30;;
81894;SDS011;76432;45.642;13.758;2024-02-14T01:54:36;1.60;;;1.50;;
81894;SDS011;76432;45.642;13.758;2024-02-14T01:57:20;2.22;;;2.03;;
81894;SDS011;76432;45.642;13.758;2024-02-14T02:00:06;2.10;;;1.80;;
81894;SDS011;76432;45.642;13.758;2024-02-14T02:02:58;1.63;;;1.52;;
81894;SDS011;76432;45.642;13.758;2024-02-14T02:05:43;1.67;;;1.58;;
81894;SDS011;76432;45.642;13.758;2024-02-14T02:08:28;3.35;;;2.00;;
81894;SDS011;76432;45.642;13.758;2024-02-14T02:11:13;1.60;;;1.50;;
81894;SDS011;76432;45.642;13.758;2024-02-14T02:13:57;3.22;;;1.48;;
81894;SDS011;76432;45.642;13.758;2024-02-14T02:16:42;1.60;;;1.50;;
81894;SDS011;76432;45.642;13.758;2024-02-14T02:19:27;2.45;;;1.50;;
81894;SDS011;76432;45.642;13.758;2024-02-14T02:22:12;3.17;;;1.40;;
81894;SDS011;76432;45.642;13.758;2024-02-14T02:24:57;1.45;;;1.35;;
81894;SDS011;76432;45.642;13.758;2024-02-14T02:27:42;1.60;;;1.23;;
81894;SDS011;76432;45.642;13.758;2024-02-14T02:30:27;1.65;;;1.55;;
81894;SDS011;76432;45.642;13.758;2024-02-14T02:33:11;1.27;;;1.17;;
81894;SDS011;76432;45.642;13.758;2024-02-14T02:35:56;1.48;;;1.38;;
81894;SDS011;76432;45.642;13.758;2024-02-14T02:38:41;2.20;;;1.67;;
81894;SDS011;76432;45.642;13.758;2024-02-14T02:41:26;1.90;;;1.70;;
81894;SDS011;76432;45.642;13.758;2024-02-14T02:44:10;1.95;;;1.30;;
81894;SDS011;76432;45.642;13.758;2024-02-14T02:46:55;1.50;;;1.40;;
81894;SDS011;76432;45.642;13.758;2024-02-14T02:49:39;1.75;;;1.40;;
81894;SDS011;76432;45.642;13.758;2024-02-14T02:52:25;2.92;;;1.48;;
81894;SDS011;76432;45.642;13.758;2024-02-14T02:55:11;2.58;;;1.50;;
81894;SDS011;76432;45.642;13.758;2024-02-14T02:57:57;1.73;;;1.63;;
81894;SDS011;76432;45.642;13.758;2024-02-14T03:00:42;1.65;;;1.55;;
81894;SDS011;76432;45.642;13.758;2024-02-14T03:03:27;1.40;;;1.15;;
81894;SDS011;76432;45.642;13.758;2024-02-14T03:06:11;1.73;;;1.35;;
81894;SDS011;76432;45.642;13.758;2024-02-14T03:08:56;1.33;;;1.23;;
81894;SDS011;76432;45.642;13.758;2024-02-14T03:11:41;1.80;;;1.52;;
81894;SDS011;76432;45.642;13.758;2024-02-14T03:14:28;1.27;;;1.17;;
81894;SDS011;76432;45.642;13.758;2024-02-14T03:17:16;1.85;;;1.60;;
81894;SDS011;76432;45.642;13.758;2024-02-14T03:20:00;1.45;;;1.35;;
81894;SDS011;76432;45.642;13.758;2024-02-14T03:22:45;1.45;;;1.30;;
81894;SDS011;76432;45.642;13.758;2024-02-14T03:25:30;1.50;;;1.30;;
81894;SDS011;76432;45.642;13.758;2024-02-14T03:28:15;1.30;;;1.17;;
81894;SDS011;76432;45.642;13.758;2024-02-14T03:30:59;1.52;;;1.42;;
81894;SDS011;76432;45.642;13.758;2024-02-14T03:33:44;1.55;;;1.35;;
81894;SDS011;76432;45.642;13.758;2024-02-14T03:36:28;1.20;;;1.10;;
81894;SDS011;76432;45.642;13.758;2024-02-14T03:39:14;1.33;;;1.23;;
81894;SDS011;76432;45.642;13.758;2024-02-14T03:42:01;1.95;;;1.40;;
81894;SDS011;76432;45.642;13.758;2024-02-14T03:44:51;1.42;;;1.33;;
81894;SDS011;76432;45.642;13.758;2024-02-14T03:47:35;1.35;;;1.20;;
81894;SDS011;76432;45.642;13.758;2024-02-14T03:50:23;2.67;;;1.33;;
81894;SDS011;76432;45.642;13.758;2024-02-14T03:53:07;1.38;;;1.27;;
81894;SDS011;76432;45.642;13.758;2024-02-14T03:55:52;0.93;;;0.90;;
81894;SDS011;76432;45.642;13.758;2024-02-14T03:58:37;1.40;;;1.27;;
81894;SDS011;76432;45.642;13.758;2024-02-14T04:01:22;1.48;;;1.38;;
81894;SDS011;76432;45.642;13.758;2024-02-14T04:04:06;2.28;;;1.35;;
81894;SDS011;76432;45.642;13.758;2024-02-14T04:06:51;1.27;;;1.17;;
81894;SDS011;76432;45.642;13.758;2024-02-14T04:09:36;1.60;;;1.20;;
81894;SDS011;76432;45.642;13.758;2024-02-14T04:12:20;1.23;;;1.13;;
81894;SDS011;76432;45.642;13.758;2024-02-14T04:15:05;2.33;;;1.00;;
81894;SDS011;76432;45.642;13.758;2024-02-14T04:17:50;1.27;;;1.17;;
81894;SDS011;76432;45.642;13.758;2024-02-14T04:20:35;1.15;;;1.00;;
81894;SDS011;76432;45.642;13.758;2024-02-14T04:23:19;1.10;;;1.00;;
81894;SDS011;76432;45.642;13.758;2024-02-14T04:26:04;1.52;;;1.10;;
81894;SDS011;76432;45.642;13.758;2024-02-14T04:28:48;1.30;;;1.20;;
81894;SDS011;76432;45.642;13.758;2024-02-14T04:31:33;1.35;;;1.20;;
81894;SDS011;76432;45.642;13.758;2024-02-14T04:34:17;1.05;;;0.98;;
81894;SDS011;76432;45.642;13.758;2024-02-14T04:37:03;1.35;;;1.17;;
81894;SDS011;76432;45.642;13.758;2024-02-14T04:39:53;1.40;;;1.20;;
81894;SDS011;76432;45.642;13.758;2024-02-14T04:42:38;1.20;;;1.10;;
81894;SDS011;76432;45.642;13.758;2024-02-14T04:45:22;1.30;;;1.20;;
81894;SDS011;76432;45.642;13.758;2024-02-14T04:48:07;1.58;;;1.40;;
81894;SDS011;76432;45.642;13.758;2024-02-14T04:50:52;2.88;;;1.30;;
81894;SDS011;76432;45.642;13.758;2024-02-14T04:53:36;1.63;;;1.02;;
81894;SDS011;76432;45.642;13.758;2024-02-14T04:56:21;1.58;;;1.30;;
81894;SDS011;76432;45.642;13.758;2024-02-14T04:59:06;1.35;;;1.23;;
81894;SDS011;76432;45.642;13.758;2024-02-14T05:01:52;1.30;;;1.17;;
81894;SDS011;76432;45.642;13.758;2024-02-14T05:04:37;1.40;;;1.30;;
81894;SDS011;76432;45.642;13.758;2024-02-14T05:07:22;1.17;;;1.05;;
81894;SDS011;76432;45.642;13.758;2024-02-14T05:10:07;2.35;;;1.40;;
81894;SDS011;76432;45.642;13.758;2024-02-14T05:12:52;1.83;;;1.30;;
81894;SDS011;76432;45.642;13.758;2024-02-14T05:15:36;1.50;;;1.38;;
81894;SDS011;76432;45.642;13.758;2024-02-14T05:18:21;1.40;;;1.08;;
81894;SDS011;76432;45.642;13.758;2024-02-14T05:21:06;1.45;;;1.35;;
81894;SDS011;76432;45.642;13.758;2024-02-14T05:23:51;1.33;;;1.23;;
81894;SDS011;76432;45.642;13.758;2024-02-14T05:26:35;1.70;;;1.60;;
81894;SDS011;76432;45.642;13.758;2024-02-14T05:29:20;1.60;;;1.50;;
81894;SDS011;76432;45.642;13.758;2024-02-14T05:32:05;1.92;;;1.30;;
81894;SDS011;76432;45.642;13.758;2024-02-14T05:34:50;1.55;;;1.38;;
81894;SDS011;76432;45.642;13.758;2024-02-14T05:37:34;2.35;;;1.30;;
81894;SDS011;76432;45.642;13.758;2024-02-14T05:40:20;1.33;;;1.15;;
81894;SDS011;76432;45.642;13.758;2024-02-14T05:43:04;1.48;;;1.38;;
81894;SDS011;76432;45.642;13.758;2024-02-14T05:45:50;1.63;;;1.30;;
81894;SDS011;76432;45.642;13.758;2024-02-14T05:48:35;1.70;;;1.00;;
81894;SDS011;76432;45.642;13.758;2024-02-14T05:51:19;1.35;;;1.25;;
81894;SDS011;76432;45.642;13.758;2024-02-14T05:54:04;1.63;;;1.30;;
81894;SDS011;76432;45.642;13.758;2024-02-14T05:56:49;1.40;;;1.20;;
81894;SDS011;76432;45.642;13.758;2024-02-14T05:59:33;1.48;;;1.30;;
81894;SDS011;76432;45.642;13.758;2024-02-14T06:02:18;2.17;;;1.23;;
81894;SDS011;76432;45.642;13.758;2024-02-14T06:05:03;2.08;;;1.33;;
81894;SDS011;76432;45.642;13.758;2024-02-14T06:07:48;1.70;;;1.40;;
81894;SDS011;76432;45.642;13.758;2024-02-14T06:10:32;0.70;;;0.70;;
81894;SDS011;76432;45.642;13.758;2024-02-14T06:13:18;1.27;;;1.00;;
81894;SDS011;76432;45.642;13.758;2024-02-14T06:16:03;2.65;;;1.30;;
81894;SDS011;76432;45.642;13.758;2024-02-14T06:18:47;1.33;;;1.17;;
81894;SDS011;76432;45.642;13.758;2024-02-14T06:21:32;1.95;;;1.27;;
81894;SDS011;76432;45.642;13.758;2024-02-14T06:24:16;1.48;;;1.38;;
81894;SDS011;76432;45.642;13.758;2024-02-14T06:27:03;2.15;;;1.25;;
81894;SDS011;76432;45.642;13.758;2024-02-14T06:29:47;1.73;;;1.20;;
81894;SDS011;76432;45.642;13.758;2024-02-14T06:32:32;1.77;;;1.23;;
81894;SDS011;76432;45.642;13.758;2024-02-14T06:35:16;1.30;;;1.15;;
81894;SDS011;76432;45.642;13.758;2024-02-14T06:38:02;1.55;;;1.45;;
81894;SDS011;76432;45.642;13.758;2024-02-14T06:40:47;2.63;;;1.30;;
81894;SDS011;76432;45.642;13.758;2024-02-14T06:43:32;1.85;;;1.25;;
81894;SDS011;76432;45.642;13.758;2024-02-14T06:46:16;1.67;;;1.40;;
81894;SDS011;76432;45.642;13.758;2024-02-14T06:49:01;1.52;;;1.33;;
81894;SDS011;76432;45.642;13.758;2024-02-14T06:51:45;2.08;;;1.15;;
81894;SDS011;76432;45.642;13.758;2024-02-14T06:54:30;1.15;;;1.08;;
81894;SDS011;76432;45.642;13.758;2024-02-14T06:57:14;1.42;;;1.08;;
81894;SDS011;76432;45.642;13.758;2024-02-14T06:59:59;1.65;;;1.30;;
81894;SDS011;76432;45.642;13.758;2024-02-14T07:02:43;1.23;;;1.13;;
81894;SDS011;76432;45.642;13.758;2024-02-14T07:05:31;2.22;;;1.50;;
81894;SDS011;76432;45.642;13.758;2024-02-14T07:08:15;2.03;;;1.52;;
81894;SDS011;76432;45.642;13.758;2024-02-14T07:11:00;2.08;;;1.42;;
81894;SDS011;76432;45.642;13.758;2024-02-14T07:13:45;1.48;;;1.20;;
81894;SDS011;76432;45.642;13.758;2024-02-14T07:16:30;1.77;;;1.50;;
81894;SDS011;76432;45.642;13.758;2024-02-14T07:19:14;1.50;;;1.40;;
81894;SDS011;76432;45.642;13.758;2024-02-14T07:21:59;1.65;;;1.45;;
81894;SDS011;76432;45.642;13.758;2024-02-14T07:24:44;4.00;;;1.65;;
81894;SDS011;76432;45.642;13.758;2024-02-14T07:27:30;1.65;;;1.55;;
81894;SDS011;76432;45.642;13.758;2024-02-14T07:30:18;2.28;;;1.50;;
81894;SDS011;76432;45.642;13.758;2024-02-14T07:33:02;1.65;;;1.50;;
81894;SDS011;76432;45.642;13.758;2024-02-14T07:35:47;3.78;;;1.60;;
81894;SDS011;76432;45.642;13.758;2024-02-14T07:38:32;4.60;;;2.05;;
81894;SDS011;76432;45.642;13.758;2024-02-14T07:41:17;4.25;;;1.98;;
81894;SDS011;76432;45.642;13.758;2024-02-14T07:44:01;4.57;;;1.73;;
81894;SDS011;76432;45.642;13.758;2024-02-14T07:46:46;3.58;;;2.00;;
81894;SDS011;76432;45.642;13.758;2024-02-14T07:49:32;3.78;;;2.13;;
81894;SDS011;76432;45.642;13.758;2024-02-14T07:52:17;4.43;;;2.50;;
81894;SDS011;76432;45.642;13.758;2024-02-14T07:55:01;2.55;;;2.20;;
81894;SDS011;76432;45.642;13.758;2024-02-14T07:57:46;2.95;;;2.55;;
81894;SDS011;76432;45.642;13.758;2024-02-14T08:00:31;3.95;;;2.47;;
81894;SDS011;76432;45.642;13.758;2024-02-14T08:03:15;4.13;;;2.50;;
81894;SDS011;76432;45.642;13.758;2024-02-14T08:06:00;6.40;;;3.05;;
81894;SDS011;76432;45.642;13.758;2024-02-14T08:08:45;6.22;;;3.15;;
81894;SDS011;76432;45.642;13.758;2024-02-14T08:11:29;7.40;;;3.67;;
81894;SDS011;76432;45.642;13.758;2024-02-14T08:14:14;12.23;;;3.45;;
81894;SDS011;76432;45.642;13.758;2024-02-14T08:16:58;7.63;;;3.53;;
81894;SDS011;76432;45.642;13.758;2024-02-14T08:19:43;8.43;;;4.32;;
81894;SDS011;76432;45.642;13.758;2024-02-14T08:22:27;5.13;;;3.47;;
81894;SDS011;76432;45.642;13.758;2024-02-14T08:25:12;9.23;;;3.72;;
81894;SDS011;76432;45.642;13.758;2024-02-14T08:27:57;7.22;;;4.05;;
81894;SDS011;76432;45.642;13.758;2024-02-14T08:30:41;7.57;;;3.85;;
81894;SDS011;76432;45.642;13.758;2024-02-14T08:33:26;6.57;;;3.58;;
81894;SDS011;76432;45.642;13.758;2024-02-14T08:36:10;7.47;;;3.70;;
81894;SDS011;76432;45.642;13.758;2024-02-14T08:38:55;5.13;;;3.42;;
81894;SDS011;76432;45.642;13.758;2024-02-14T08:41:40;9.52;;;4.30;;
81894;SDS011;76432;45.642;13.758;2024-02-14T08:44:25;4.93;;;3.47;;
81894;SDS011;76432;45.642;13.758;2024-02-14T08:47:09;6.38;;;3.47;;
81894;SDS011;76432;45.642;13.758;2024-02-14T08:49:54;6.43;;;3.65;;
81894;SDS011;76432;45.642;13.758;2024-02-14T08:52:38;4.35;;;3.35;;
81894;SDS011;76432;45.642;13.758;2024-02-14T08:55:23;6.05;;;3.45;;
81894;SDS011;76432;45.642;13.758;2024-02-14T08:58:07;5.57;;;3.25;;
81894;SDS011;76432;45.642;13.758;2024-02-14T09:00:55;5.15;;;3.42;;
81894;SDS011;76432;45.642;13.758;2024-02-14T09:03:39;5.53;;;3.53;;
81894;SDS011;76432;45.642;13.758;2024-02-14T09:06:27;5.15;;;2.95;;
81894;SDS011;76432;45.642;13.758;2024-02-14T09:09:11;7.50;;;3.42;;
81894;SDS011;76432;45.642;13.758;2024-02-14T09:11:57;3.70;;;2.92;;
81894;SDS011;76432;45.642;13.758;2024-02-14T09:14:46;6.50;;;2.92;;
81894;SDS011;76432;45.642;13.758;2024-02-14T09:17:30;3.92;;;3.42;;
81894;SDS011;76432;45.642;13.758;2024-02-14T09:20:15;5.70;;;3.40;;
81894;SDS011;76432;45.642;13.758;2024-02-14T09:22:59;6.22;;;4.07;;
81894;SDS011;76432;45.642;13.758;2024-02-14T09:25:44;8.07;;;3.38;;
81894;SDS011;76432;45.642;13.758;2024-02-14T09:28:28;5.88;;;3.58;;
81894;SDS011;76432;45.642;13.758;2024-02-14T09:31:17;4.65;;;3.38;;
81894;SDS011;76432;45.642;13.758;2024-02-14T09:34:05;3.40;;;3.10;;
81894;SDS011;76432;45.642;13.758;2024-02-14T09:36:49;2.83;;;2.58;;
81894;SDS011;76432;45.642;13.758;2024-02-14T09:39:34;3.40;;;2.78;;
81894;SDS011;76432;45.642;13.758;2024-02-14T09:42:23;5.65;;;3.28;;
81894;SDS011;76432;45.642;13.758;2024-02-14T09:45:15;4.45;;;3.28;;
81894;SDS011;76432;45.642;13.758;2024-02-14T09:47:59;4.22;;;3.17;;
81894;SDS011;76432;45.642;13.758;2024-02-14T09:50:44;4.65;;;3.33;;
81894;SDS011;76432;45.642;13.758;2024-02-14T09:53:30;6.25;;;3.25;;
81894;SDS011;76432;45.642;13.758;2024-02-14T09:56:17;3.40;;;3.10;;
81894;SDS011;76432;45.642;13.758;2024-02-14T09:59:05;5.95;;;3.30;;
81894;SDS011;76432;45.642;13.758;2024-02-14T10:01:50;3.78;;;3.00;;
81894;SDS011;76432;45.642;13.758;2024-02-14T10:04:36;3.72;;;3.30;;
81894;SDS011;76432;45.642;13.758;2024-02-14T10:07:21;4.25;;;3.38;;
81894;SDS011;76432;45.642;13.758;2024-02-14T10:10:06;6.05;;;3.22;;
81894;SDS011;76432;45.642;13.758;2024-02-14T10:12:51;4.80;;;3.60;;
81894;SDS011;76432;45.642;13.758;2024-02-14T10:15:38;4.47;;;3.40;;
81894;SDS011;76432;45.642;13.758;2024-02-14T10:18:22;3.80;;;3.33;;
81894;SDS011;76432;45.642;13.758;2024-02-14T10:21:08;4.68;;;2.90;;
81894;SDS011;76432;45.642;13.758;2024-02-14T10:24:01;4.18;;;3.30;;
81894;SDS011;76432;45.642;13.758;2024-02-14T10:26:46;3.55;;;3.20;;
81894;SDS011;76432;45.642;13.758;2024-02-14T10:29:30;3.70;;;2.75;;
81894;SDS011;76432;45.642;13.758;2024-02-14T10:32:16;3.42;;;2.97;;
81894;SDS011;76432;45.642;13.758;2024-02-14T10:35:00;3.00;;;2.72;;
81894;SDS011;76432;45.642;13.758;2024-02-14T10:37:47;4.00;;;2.90;;
81894;SDS011;76432;45.642;13.758;2024-02-14T10:40:33;4.68;;;2.97;;
81894;SDS011;76432;45.642;13.758;2024-02-14T10:43:18;3.70;;;3.40;;
81894;SDS011;76432;45.642;13.758;2024-02-14T10:46:05;4.05;;;3.08;;
81894;SDS011;76432;45.642;13.758;2024-02-14T10:48:58;4.78;;;3.17;;
81894;SDS011;76432;45.642;13.758;2024-02-14T10:51:49;3.42;;;2.83;;
81894;SDS011;76432;45.642;13.758;2024-02-14T10:54:37;4.20;;;3.08;;
81894;SDS011;76432;45.642;13.758;2024-02-14T10:57:24;3.20;;;2.83;;
81894;SDS011;76432;45.642;13.758;2024-02-14T11:00:09;3.42;;;2.63;;
81894;SDS011;76432;45.642;13.758;2024-02-14T11:02:57;3.20;;;2.90;;
81894;SDS011;76432;45.642;13.758;2024-02-14T11:05:45;3.80;;;2.80;;
81894;SDS011;76432;45.642;13.758;2024-02-14T11:08:31;3.28;;;2.97;;
81894;SDS011;76432;45.642;13.758;2024-02-14T11:11:16;3.50;;;2.65;;
81894;SDS011;76432;45.642;13.758;2024-02-14T11:14:01;4.30;;;3.03;;
81894;SDS011;76432;45.642;13.758;2024-02-14T11:16:47;2.50;;;2.30;;
81894;SDS011;76432;45.642;13.758;2024-02-14T11:19:32;2.58;;;2.38;;
81894;SDS011;76432;45.642;13.758;2024-02-14T11:22:19;3.45;;;2.50;;
81894;SDS011;76432;45.642;13.758;2024-02-14T11:25:06;4.93;;;2.42;;
81894;SDS011;76432;45.642;13.758;2024-02-14T11:27:51;2.92;;;2.50;;
81894;SDS011;76432;45.642;13.758;2024-02-14T11:30:36;3.55;;;2.65;;
81894;SDS011;76432;45.642;13.758;2024-02-14T11:33:21;3.28;;;2.42;;
81894;SDS011;76432;45.642;13.758;2024-02-14T11:36:08;2.80;;;2.60;;
81894;SDS011;76432;45.642;13.758;2024-02-14T11:38:55;3.08;;;2.60;;
81894;SDS011;76432;45.642;13.758;2024-02-14T11:41:41;3.72;;;2.75;;
81894;SDS011;76432;45.642;13.758;2024-02-14T11:44:26;2.60;;;2.25;;
81894;SDS011;76432;45.642;13.758;2024-02-14T11:47:11;2.60;;;2.40;;
81894;SDS011;76432;45.642;13.758;2024-02-14T11:49:55;2.53;;;2.30;;
81894;SDS011;76432;45.642;13.758;2024-02-14T11:52:42;2.50;;;2.30;;
81894;SDS011;76432;45.642;13.758;2024-02-14T11:55:27;2.58;;;2.20;;
81894;SDS011;76432;45.642;13.758;2024-02-14T11:58:16;2.50;;;2.30;;
81894;SDS011;76432;45.642;13.758;2024-02-14T12:01:03;3.63;;;2.33;;
81894;SDS011;76432;45.642;13.758;2024-02-14T12:03:48;2.35;;;1.90;;
81894;SDS011;76432;45.642;13.758;2024-02-14T12:06:33;2.47;;;2.20;;
81894;SDS011;76432;45.642;13.758;2024-02-14T12:09:19;3.35;;;2.28;;
81894;SDS011;76432;45.642;13.758;2024-02-14T12:12:05;2.42;;;2.22;;
81894;SDS011;76432;45.642;13.758;2024-02-14T12:14:53;1.70;;;1.60;;
81894;SDS011;76432;45.642;13.758;2024-02-14T12:17:37;2.10;;;1.90;;
81894;SDS011;76432;45.642;13.758;2024-02-14T12:20:22;2.33;;;1.88;;
81894;SDS011;76432;45.642;13.758;2024-02-14T12:23:07;1.98;;;1.88;;
81894;SDS011;76432;45.642;13.758;2024-02-14T12:25:51;2.05;;;1.88;;
81894;SDS011;76432;45.642;13.758;2024-02-14T12:28:36;2.00;;;1.90;;
81894;SDS011;76432;45.642;13.758;2024-02-14T12:31:22;3.13;;;1.80;;
81894;SDS011;76432;45.642;13.758;2024-02-14T12:34:07;2.03;;;1.90;;
81894;SDS011;76432;45.642;13.758;2024-02-14T12:36:54;2.30;;;2.10;;
81894;SDS011;76432;45.642;13.758;2024-02-14T12:39:39;2.03;;;1.65;;
81894;SDS011;76432;45.642;13.758;2024-02-14T12:42:24;2.10;;;1.90;;
81894;SDS011;76432;45.642;13.758;2024-02-14T12:45:10;1.73;;;1.63;;
81894;SDS011;76432;45.642;13.758;2024-02-14T12:47:54;2.45;;;1.67;;
81894;SDS011;76432;45.642;13.758;2024-02-14T12:50:39;2.40;;;2.10;;
81894;SDS011;76432;45.642;13.758;2024-02-14T12:53:28;2.00;;;1.83;;
81894;SDS011;76432;45.642;13.758;2024-02-14T12:56:12;2.20;;;1.85;;
81894;SDS011;76432;45.642;13.758;2024-02-14T12:58:57;3.38;;;1.75;;
81894;SDS011;76432;45.642;13.758;2024-02-14T13:01:43;2.20;;;1.85;;
81894;SDS011;76432;45.642;13.758;2024-02-14T13:04:27;1.65;;;1.55;;
81894;SDS011;76432;45.642;13.758;2024-02-14T13:07:12;1.88;;;1.55;;
81894;SDS011;76432;45.642;13.758;2024-02-14T13:09:57;2.03;;;1.80;;
81894;SDS011;76432;45.642;13.758;2024-02-14T13:12:41;2.45;;;1.67;;
81894;SDS011;76432;45.642;13.758;2024-02-14T13:15:27;2.20;;;1.80;;
81894;SDS011;76432;45.642;13.758;2024-02-14T13:18:12;1.88;;;1.67;;
81894;SDS011;76432;45.642;13.758;2024-02-14T13:20:57;3.15;;;1.40;;
81894;SDS011;76432;45.642;13.758;2024-02-14T13:23:43;4.50;;;1.98;;
81894;SDS011;76432;45.642;13.758;2024-02-14T13:26:28;1.60;;;1.50;;
81894;SDS011;76432;45.642;13.758;2024-02-14T13:29:12;1.50;;;1.40;;
81894;SDS011;76432;45.642;13.758;2024-02-14T13:31:57;1.95;;;1.60;;
81894;SDS011;76432;45.642;13.758;2024-02-14T13:34:41;1.90;;;1.67;;
81894;SDS011;76432;45.642;13.758;2024-02-14T13:37:27;1.63;;;1.20;;
81894;SDS011;76432;45.642;13.758;2024-02-14T13:40:12;3.63;;;1.95;;
81894;SDS011;76432;45.642;13.758;2024-02-14T13:42:57;2.40;;;1.85;;
81894;SDS011;76432;45.642;13.758;2024-02-14T13:45:42;2.17;;;1.77;;
81894;SDS011;76432;45.642;13.758;2024-02-14T13:48:27;1.70;;;1.60;;
81894;SDS011;76432;45.642;13.758;2024-02-14T13:51:12;1.70;;;1.60;;
81894;SDS011;76432;45.642;13.758;2024-02-14T13:53:56;2.15;;;1.95;;
81894;SDS011;76432;45.642;13.758;2024-02-14T13:56:41;3.35;;;2.00;;
81894;SDS011;76432;45.642;13.758;2024-02-14T13:59:25;2.40;;;1.77;;
81894;SDS011;76432;45.642;13.758;2024-02-14T14:02:10;2.97;;;1.85;;
81894;SDS011;76432;45.642;13.758;2024-02-14T14:04:55;2.53;;;1.92;;
81894;SDS011;76432;45.642;13.758;2024-02-14T14:07:39;1.83;;;1.65;;
81894;SDS011;76432;45.642;13.758;2024-02-14T14:10:25;2.03;;;1.80;;
81894;SDS011;76432;45.642;13.758;2024-02-14T14:13:10;1.90;;;1.70;;
81894;SDS011;76432;45.642;13.758;2024-02-14T14:15:54;2.08;;;1.83;;
81894;SDS011;76432;45.642;13.758;2024-02-14T14:18:39;2.00;;;1.65;;
81894;SDS011;76432;45.642;13.758;2024-02-14T14:21:23;2.15;;;1.80;;
81894;SDS011;76432;45.642;13.758;2024-02-14T14:24:08;3.50;;;1.90;;
81894;SDS011;76432;45.642;13.758;2024-02-14T14:26:53;3.42;;;1.73;;
81894;SDS011;76432;45.642;13.758;2024-02-14T14:29:37;3.13;;;1.63;;
81894;SDS011;76432;45.642;13.758;2024-02-14T14:32:22;1.65;;;1.55;;
81894;SDS011;76432;45.642;13.758;2024-02-14T14:35:06;2.45;;;1.73;;
81894;SDS011;76432;45.642;13.758;2024-02-14T14:37:54;4.22;;;1.75;;
81894;SDS011;76432;45.642;13.758;2024-02-14T14:40:38;2.15;;;1.80;;
81894;SDS011;76432;45.642;13.758;2024-02-14T14:43:23;1.85;;;1.75;;
81894;SDS011;76432;45.642;13.758;2024-02-14T14:46:07;3.08;;;2.10;;
81894;SDS011;76432;45.642;13.758;2024-02-14T14:48:52;2.47;;;1.95;;
81894;SDS011;76432;45.642;13.758;2024-02-14T14:51:37;2.38;;;1.48;;
81894;SDS011;76432;45.642;13.758;2024-02-14T14:54:21;2.15;;;1.88;;
81894;SDS011;76432;45.642;13.758;2024-02-14T14:57:06;2.38;;;1.63;;
81894;SDS011;76432;45.642;13.758;2024-02-14T14:59:58;2.97;;;1.88;;
81894;SDS011;76432;45.642;13.758;2024-02-14T15:02:43;1.55;;;1.38;;
81894;SDS011;76432;45.642;13.758;2024-02-14T15:05:28;3.95;;;1.63;;
81894;SDS011;76432;45.642;13.758;2024-02-14T15:08:12;2.97;;;1.75;;
81894;SDS011;76432;45.642;13.758;2024-02-14T15:10:57;2.10;;;1.83;;
81894;SDS011;76432;45.642;13.758;2024-02-14T15:13:42;2.08;;;1.75;;
81894;SDS011;76432;45.642;13.758;2024-02-14T15:16:28;1.95;;;1.50;;
81894;SDS011;76432;45.642;13.758;2024-02-14T15:19:13;1.88;;;1.77;;
81894;SDS011;76432;45.642;13.758;2024-02-14T15:21:57;1.90;;;1.70;;
81894;SDS011;76432;45.642;13.758;2024-02-14T15:24:46;2.15;;;1.83;;
81894;SDS011;76432;45.642;13.758;2024-02-14T15:27:31;2.15;;;1.88;;
81894;SDS011;76432;45.642;13.758;2024-02-14T15:30:16;1.55;;;1.45;;
81894;SDS011;76432;45.642;13.758;2024-02-14T15:33:19;2.40;;;1.92;;
81894;SDS011;76432;45.642;13.758;2024-02-14T15:36:06;1.88;;;1.67;;
81894;SDS011;76432;45.642;13.758;2024-02-14T15:38:51;2.13;;;1.80;;
81894;SDS011;76432;45.642;13.758;2024-02-14T15:41:36;2.92;;;1.80;;
81894;SDS011;76432;45.642;13.758;2024-02-14T15:44:20;2.05;;;1.88;;
81894;SDS011;76432;45.642;13.758;2024-02-14T15:47:05;2.38;;;1.95;;
81894;SDS011;76432;45.642;13.758;2024-02-14T15:49:51;1.98;;;1.88;;
81894;SDS011;76432;45.642;13.758;2024-02-14T15:52:35;2.60;;;1.90;;
81894;SDS011;76432;45.642;13.758;2024-02-14T15:55:21;1.88;;;1.67;;
81894;SDS011;76432;45.642;13.758;2024-02-14T15:58:06;2.03;;;1.83;;
81894;SDS011;76432;45.642;13.758;2024-02-14T16:00:51;1.85;;;1.70;;
81894;SDS011;76432;45.642;13.758;2024-02-14T16:03:36;3.00;;;1.92;;
81894;SDS011;76432;45.642;13.758;2024-02-14T16:06:20;1.70;;;1.60;;
81894;SDS011;76432;45.642;13.758;2024-02-14T16:09:05;1.85;;;1.75;;
81894;SDS011;76432;45.642;13.758;2024-02-14T16:11:50;2.40;;;2.20;;
81894;SDS011;76432;45.642;13.758;2024-02-14T16:14:34;1.83;;;1.73;;
81894;SDS011;76432;45.642;13.758;2024-02-14T16:17:20;4.70;;;2.10;;
81894;SDS011;76432;45.642;13.758;2024-02-14T16:20:08;2.40;;;2.20;;